Time;durP1;ratioP1;P1;durP2;ratioP2;P2;SDS_P1;SDS_P2;PMS_P1;PMS_P2;Temp;Humidity;BMP_temperature;BMP_pressure;BME280_temperature;BME280_humidity;BME280_pressure;Samples;Min_cycle;Max_cycle;Signal;HPM_P1;HPM_P2
2022/01/08 00:00:15;;;;;;;2.47;2.27;;;3.60;99.90;;;;;;5073558;28;20436;-61
2022/01/08 00:02:43;;;;;;;2.80;2.50;;;3.60;99.90;;;;;;5073687;28;20459;-61
2022/01/08 00:05:11;;;;;;;2.53;2.33;;;3.60;99.90;;;;;;5073544;28;20440;-61
2022/01/08 00:07:39;;;;;;;2.30;1.73;;;3.60;99.90;;;;;;5073902;28;20463;-62
2022/01/08 00:10:07;;;;;;;3.10;2.10;;;3.60;99.90;;;;;;5073519;28;20444;-62
2022/01/08 00:12:34;;;;;;;2.63;2.43;;;3.60;99.90;;;;;;5073210;28;20778;-61
2022/01/08 00:15:02;;;;;;;2.40;2.20;;;3.70;99.90;;;;;;5073262;28;20488;-62
2022/01/08 00:17:29;;;;;;;2.50;2.30;;;3.60;99.90;;;;;;5073583;28;20523;-62
2022/01/08 00:19:56;;;;;;;2.40;2.20;;;3.80;99.90;;;;;;5073333;28;20452;-61
2022/01/08 00:22:23;;;;;;;2.20;2.00;;;3.80;99.90;;;;;;5073172;28;20447;-62
2022/01/08 00:24:52;;;;;;;2.10;1.90;;;3.80;99.90;;;;;;5073488;28;20448;-61
2022/01/08 00:27:19;;;;;;;2.03;1.87;;;3.80;99.90;;;;;;5073281;28;20543;-62
2022/01/08 00:29:47;;;;;;;2.67;2.43;;;3.80;99.90;;;;;;5072911;28;20441;-62
2022/01/08 00:32:14;;;;;;;2.57;2.37;;;3.80;99.90;;;;;;5073316;28;20468;-61
2022/01/08 00:34:41;;;;;;;2.50;2.30;;;3.90;99.90;;;;;;5072770;28;20525;-62
2022/01/08 00:37:09;;;;;;;2.10;2.00;;;3.90;99.90;;;;;;5073169;28;20455;-62
2022/01/08 00:39:37;;;;;;;3.03;2.30;;;3.90;99.90;;;;;;5073230;28;20831;-62
2022/01/08 00:42:06;;;;;;;2.43;2.23;;;4.00;99.90;;;;;;5072694;28;20525;-62
2022/01/08 00:44:33;;;;;;;2.23;2.03;;;4.00;99.90;;;;;;5073136;28;20455;-62
2022/01/08 00:47:00;;;;;;;3.07;2.13;;;4.10;99.90;;;;;;5073287;28;20542;-61
2022/01/08 00:49:27;;;;;;;2.47;2.00;;;4.10;99.90;;;;;;5072804;28;21011;-61
2022/01/08 00:51:54;;;;;;;2.40;2.20;;;4.20;99.90;;;;;;5072755;28;20975;-62
2022/01/08 00:54:21;;;;;;;3.07;2.60;;;4.20;99.90;;;;;;5072897;28;20932;-61
2022/01/08 00:56:50;;;;;;;3.20;2.23;;;4.20;99.90;;;;;;5072991;28;20484;-61
2022/01/08 00:59:19;;;;;;;2.47;2.23;;;4.10;99.90;;;;;;5072703;28;20957;-61
2022/01/08 01:01:46;;;;;;;3.10;2.40;;;4.10;99.90;;;;;;5072757;28;20474;-61
2022/01/08 01:04:13;;;;;;;2.60;2.40;;;4.10;99.90;;;;;;5073350;28;20791;-61
2022/01/08 01:06:40;;;;;;;2.63;2.43;;;4.10;99.90;;;;;;5072924;28;20454;-61
2022/01/08 01:09:07;;;;;;;2.30;2.20;;;4.00;99.90;;;;;;5075523;28;20935;-61
2022/01/08 01:11:34;;;;;;;2.43;2.23;;;4.20;99.90;;;;;;5076963;28;20460;-61
2022/01/08 01:14:01;;;;;;;3.57;3.20;;;4.20;99.90;;;;;;5076525;28;20543;-62
2022/01/08 01:16:30;;;;;;;3.80;2.77;;;4.20;99.90;;;;;;5075224;28;20488;-61
2022/01/08 01:18:59;;;;;;;2.40;2.20;;;4.20;99.90;;;;;;5076560;28;20448;-61
2022/01/08 01:21:26;;;;;;;3.47;2.70;;;4.20;99.90;;;;;;5076615;28;20467;-61
2022/01/08 01:23:54;;;;;;;2.40;2.20;;;4.30;99.90;;;;;;5076311;28;20448;-61
2022/01/08 01:26:24;;;;;;;2.67;2.47;;;4.30;99.90;;;;;;5076704;28;20462;-61
2022/01/08 01:28:57;;;;;;;3.40;2.80;;;4.30;99.90;;;;;;5076627;28;20429;-61
2022/01/08 01:47:50;;;;;;;3.10;2.80;;;4.20;99.90;;;;;;5076003;28;20886;-61
2022/01/08 01:50:18;;;;;;;2.87;2.63;;;4.20;99.90;;;;;;5076211;28;20487;-61
2022/01/08 01:52:45;;;;;;;5.00;2.50;;;4.30;99.90;;;;;;5076125;28;20440;-61
2022/01/08 01:55:12;;;;;;;3.53;3.23;;;4.40;99.90;;;;;;5075691;28;20773;-61
2022/01/08 01:57:40;;;;;;;2.30;2.10;;;4.40;99.90;;;;;;5076131;28;20448;-61
2022/01/08 02:00:09;;;;;;;4.40;4.17;;;4.30;99.90;;;;;;5075553;28;20453;-61
2022/01/08 02:02:36;;;;;;;2.13;1.90;;;4.30;99.90;;;;;;5075734;28;20950;-61
2022/01/08 02:05:03;;;;;;;2.67;2.30;;;4.30;99.90;;;;;;5075690;28;20948;-61
2022/01/08 02:07:32;;;;;;;2.50;2.30;;;4.30;99.90;;;;;;5076099;28;20554;-61
2022/01/08 02:09:59;;;;;;;2.30;2.20;;;4.20;99.90;;;;;;5075752;28;20543;-61
2022/01/08 02:12:26;;;;;;;2.53;2.33;;;4.40;99.90;;;;;;5075789;28;20895;-61
2022/01/08 02:14:53;;;;;;;2.60;2.40;;;4.40;99.90;;;;;;5075547;28;20476;-61
2022/01/08 02:17:20;;;;;;;2.40;2.30;;;4.30;99.90;;;;;;5075553;28;20488;-61
2022/01/08 02:19:47;;;;;;;2.20;2.10;;;4.30;99.90;;;;;;5074418;28;20546;-61
2022/01/08 02:22:20;;;;;;;2.40;2.20;;;4.40;99.90;;;;;;5075682;28;20820;-61
2022/01/08 02:24:48;;;;;;;2.80;2.60;;;4.30;99.90;;;;;;5075596;28;20789;-61
2022/01/08 02:27:16;;;;;;;2.80;2.00;;;4.50;99.90;;;;;;5075506;28;20447;-61
2022/01/08 02:29:44;;;;;;;2.17;1.97;;;4.40;99.90;;;;;;5075577;28;20454;-62
2022/01/08 02:32:15;;;;;;;2.20;2.00;;;4.50;99.90;;;;;;5075325;28;20464;-61
2022/01/08 02:34:43;;;;;;;2.33;2.13;;;4.50;99.90;;;;;;5075379;28;20425;-61
2022/01/08 02:37:11;;;;;;;3.10;2.47;;;4.40;99.90;;;;;;5075337;28;20583;-61
2022/01/08 02:39:41;;;;;;;2.53;2.00;;;4.30;99.90;;;;;;5075330;28;20448;-61
2022/01/08 02:42:11;;;;;;;4.60;1.90;;;4.40;99.90;;;;;;5075129;28;20822;-61
2022/01/08 02:44:41;;;;;;;4.10;2.10;;;4.50;99.90;;;;;;5074775;28;20947;-62
2022/01/08 02:47:08;;;;;;;2.00;1.90;;;4.40;99.90;;;;;;5075216;28;20444;-61
2022/01/08 02:49:36;;;;;;;3.77;2.00;;;4.50;99.90;;;;;;5075015;28;20453;-61
2022/01/08 02:52:05;;;;;;;2.23;2.13;;;4.60;99.90;;;;;;5074621;28;20468;-61
2022/01/08 02:54:32;;;;;;;2.17;1.97;;;4.60;99.90;;;;;;5075099;28;20444;-61
2022/01/08 02:57:00;;;;;;;3.30;1.80;;;4.60;99.90;;;;;;5074697;28;20541;-61
2022/01/08 02:59:28;;;;;;;2.10;2.00;;;4.60;99.90;;;;;;5074576;28;20436;-61
2022/01/08 03:01:55;;;;;;;1.90;1.80;;;4.60;99.90;;;;;;5074404;28;20468;-61
2022/01/08 03:04:26;;;;;;;2.20;2.00;;;4.60;99.90;;;;;;5074563;28;20802;-61
2022/01/08 03:06:54;;;;;;;2.13;1.90;;;4.50;99.90;;;;;;5074591;28;20453;-61
2022/01/08 03:09:21;;;;;;;2.30;2.10;;;4.50;99.90;;;;;;5074619;28;20547;-60
2022/01/08 03:11:48;;;;;;;2.47;2.27;;;4.50;99.90;;;;;;5074621;28;20474;-60
2022/01/08 03:14:16;;;;;;;2.53;2.33;;;4.40;99.90;;;;;;5074079;28;20448;-62
2022/01/08 03:16:43;;;;;;;2.07;1.87;;;4.50;99.90;;;;;;5074094;28;20567;-60
2022/01/08 03:19:11;;;;;;;2.43;2.13;;;4.40;99.90;;;;;;5074298;28;20954;-60
2022/01/08 03:21:42;;;;;;;2.43;2.10;;;4.40;99.90;;;;;;5074299;28;20472;-61
2022/01/08 03:24:15;;;;;;;2.80;2.00;;;4.30;99.90;;;;;;5074030;28;20475;-60
2022/01/08 03:26:42;;;;;;;2.67;2.47;;;4.30;99.90;;;;;;5074500;28;20436;-60
2022/01/08 03:29:09;;;;;;;5.43;2.20;;;4.20;99.90;;;;;;5074362;28;20535;-60
2022/01/08 03:31:38;;;;;;;2.20;2.00;;;4.20;99.90;;;;;;5073559;28;20469;-61
2022/01/08 03:34:06;;;;;;;4.03;2.23;;;4.30;99.90;;;;;;5074163;28;20444;-60
2022/01/08 03:36:33;;;;;;;3.47;3.23;;;4.20;99.90;;;;;;5073854;28;20523;-60
2022/01/08 03:39:01;;;;;;;2.80;2.60;;;4.00;99.90;;;;;;5074054;28;20474;-60
2022/01/08 03:41:28;;;;;;;3.07;2.37;;;4.00;99.90;;;;;;5073603;28;20823;-60
2022/01/08 03:43:56;;;;;;;4.80;2.30;;;3.90;99.90;;;;;;5073777;28;20982;-61
2022/01/08 03:46:27;;;;;;;3.53;3.30;;;3.80;99.90;;;;;;5073957;28;20443;-61
2022/01/08 03:49:13;;;;;;;2.97;2.77;;;3.80;99.90;;;;;;5073649;28;20782;-61
2022/01/08 03:51:41;;;;;;;2.37;2.17;;;3.80;99.90;;;;;;5073523;28;20488;-61
2022/01/08 03:54:08;;;;;;;2.63;2.30;;;3.80;99.90;;;;;;5073862;28;20452;-60
2022/01/08 03:56:36;;;;;;;2.57;2.37;;;3.80;99.90;;;;;;5073833;28;20484;-61
2022/01/08 03:59:03;;;;;;;3.20;2.70;;;3.80;99.90;;;;;;5073429;28;20981;-60
2022/01/08 04:01:30;;;;;;;3.13;2.70;;;3.80;99.90;;;;;;5073641;28;20560;-61
2022/01/08 04:03:58;;;;;;;2.90;2.67;;;3.70;99.90;;;;;;5073516;28;20542;-61
2022/01/08 04:06:25;;;;;;;4.50;2.90;;;3.60;99.90;;;;;;5073365;28;20452;-61
2022/01/08 04:08:57;;;;;;;2.57;2.37;;;3.70;99.90;;;;;;5073372;28;20429;-61
2022/01/08 04:11:24;;;;;;;3.63;3.33;;;3.60;99.90;;;;;;5073405;28;20999;-61
2022/01/08 04:13:52;;;;;;;3.10;2.80;;;3.70;99.90;;;;;;5073509;28;20448;-61
2022/01/08 04:16:24;;;;;;;3.77;3.47;;;3.70;99.90;;;;;;5073037;28;20570;-61
2022/01/08 04:18:51;;;;;;;3.77;2.80;;;3.90;99.90;;;;;;5073314;28;20429;-61
2022/01/08 04:21:58;;;;;;;3.23;2.93;;;3.80;99.90;;;;;;5073206;28;20464;-61
2022/01/08 04:24:17;;;;;;;2.70;2.50;;;3.80;99.90;;;;;;5073192;28;20472;-61
2022/01/08 04:26:44;;;;;;;2.63;2.30;;;3.90;99.90;;;;;;5073072;28;20448;-61
2022/01/08 04:29:11;;;;;;;5.50;2.80;;;3.90;99.90;;;;;;5073017;28;20813;-62
2022/01/08 04:31:39;;;;;;;2.90;2.70;;;3.90;99.90;;;;;;5073419;28;20494;-61
2022/01/08 04:34:06;;;;;;;7.43;3.43;;;4.00;99.90;;;;;;5073006;28;20939;-61
2022/01/08 04:36:34;;;;;;;3.13;2.77;;;4.00;99.90;;;;;;5072887;28;20483;-61
2022/01/08 04:39:01;;;;;;;9.00;4.27;;;4.00;99.90;;;;;;5073029;28;20444;-61
2022/01/08 04:41:28;;;;;;;4.83;3.60;;;3.90;99.90;;;;;;5073197;28;20472;-61
2022/01/08 04:43:55;;;;;;;2.90;2.70;;;4.00;99.90;;;;;;5072439;28;20451;-61
2022/01/08 04:46:23;;;;;;;3.40;2.93;;;3.80;99.90;;;;;;5073318;28;20441;-61
2022/01/08 04:48:50;;;;;;;5.07;3.10;;;3.80;99.90;;;;;;5072992;28;20993;-61
2022/01/08 04:51:17;;;;;;;3.23;2.93;;;3.80;99.90;;;;;;5073027;28;20490;-61
2022/01/08 04:53:46;;;;;;;3.53;3.23;;;3.80;99.90;;;;;;5073125;28;20448;-61
2022/01/08 04:56:13;;;;;;;2.83;2.63;;;3.80;99.90;;;;;;5073088;28;20543;-61
2022/01/08 04:58:40;;;;;;;3.07;2.87;;;3.60;99.90;;;;;;5073067;28;20447;-61
2022/01/08 05:01:12;;;;;;;2.80;2.60;;;3.70;99.90;;;;;;5072752;28;20975;-61
2022/01/08 05:03:40;;;;;;;2.73;2.53;;;3.70;99.90;;;;;;5072899;28;20432;-61
2022/01/08 05:06:07;;;;;;;2.57;2.40;;;3.70;99.90;;;;;;5072547;28;20517;-62
2022/01/08 05:08:34;;;;;;;4.07;2.30;;;3.70;99.90;;;;;;5072979;28;20448;-61
2022/01/08 05:11:03;;;;;;;3.17;2.80;;;3.50;99.90;;;;;;5072755;28;20560;-61
2022/01/08 05:13:30;;;;;;;2.23;2.10;;;3.40;99.90;;;;;;5072674;28;20826;-61
2022/01/08 05:15:58;;;;;;;2.73;2.50;;;3.40;99.90;;;;;;5072549;28;20476;-61
2022/01/08 05:18:25;;;;;;;2.47;2.27;;;3.30;99.90;;;;;;5072665;28;20488;-61
2022/01/08 05:20:57;;;;;;;2.27;2.17;;;3.30;99.90;;;;;;5072457;28;21024;-62
2022/01/08 05:23:24;;;;;;;2.67;2.47;;;3.20;99.90;;;;;;5072961;28;20437;-61
2022/01/08 05:25:53;;;;;;;2.30;2.10;;;3.30;99.90;;;;;;5072454;28;20448;-62
2022/01/08 05:28:22;;;;;;;2.00;1.90;;;3.20;99.90;;;;;;5072975;28;20479;-62
2022/01/08 05:30:49;;;;;;;2.20;2.00;;;3.30;99.90;;;;;;5072751;28;20461;-62
2022/01/08 05:33:16;;;;;;;2.27;2.17;;;3.30;99.90;;;;;;5072780;28;20444;-62
2022/01/08 05:35:44;;;;;;;2.00;1.90;;;3.20;99.90;;;;;;5072708;28;20448;-62
2022/01/08 05:38:11;;;;;;;2.40;2.20;;;3.10;99.90;;;;;;5072378;28;20995;-62
2022/01/08 05:40:38;;;;;;;2.20;2.00;;;3.10;99.90;;;;;;5072325;28;20478;-62
2022/01/08 05:43:05;;;;;;;2.27;2.17;;;3.20;99.90;;;;;;5072822;28;20474;-62
2022/01/08 05:45:34;;;;;;;2.70;2.07;;;3.20;99.90;;;;;;5072708;28;20444;-62
2022/01/08 05:48:01;;;;;;;2.60;2.30;;;3.20;99.90;;;;;;5072631;28;20445;-62
2022/01/08 05:50:28;;;;;;;2.20;2.10;;;3.30;99.90;;;;;;5072888;28;20802;-62
2022/01/08 05:52:56;;;;;;;1.60;1.50;;;3.30;99.90;;;;;;5072620;28;20455;-62
2022/01/08 05:55:23;;;;;;;1.70;1.60;;;3.40;99.90;;;;;;5075323;28;20459;-62
2022/01/08 05:57:50;;;;;;;1.60;1.50;;;3.40;99.90;;;;;;5076118;28;20476;-62
2022/01/08 06:00:17;;;;;;;1.50;1.40;;;3.40;99.90;;;;;;5075870;28;20479;-61
2022/01/08 06:02:46;;;;;;;1.50;1.40;;;3.30;99.90;;;;;;5075683;28;20787;-61
2022/01/08 06:05:13;;;;;;;1.60;1.50;;;3.20;99.90;;;;;;5076040;28;20527;-61
2022/01/08 06:07:40;;;;;;;1.97;1.60;;;3.20;99.90;;;;;;5076187;28;20456;-62
2022/01/08 06:10:08;;;;;;;1.60;1.50;;;3.20;99.90;;;;;;5075478;28;20444;-61
2022/01/08 06:12:35;;;;;;;1.50;1.40;;;3.00;99.90;;;;;;5075543;28;20452;-62
2022/01/08 06:15:03;;;;;;;1.60;1.50;;;3.00;99.90;;;;;;5075697;28;20480;-62
2022/01/08 06:17:30;;;;;;;1.50;1.40;;;2.90;99.90;;;;;;5075344;28;20516;-61
2022/01/08 06:19:59;;;;;;;1.57;1.47;;;3.00;99.90;;;;;;5075288;28;20539;-62
2022/01/08 06:22:26;;;;;;;1.87;1.77;;;3.00;99.90;;;;;;5075429;28;20448;-61
2022/01/08 06:24:53;;;;;;;1.80;1.70;;;2.90;99.90;;;;;;5075536;28;20459;-62
2022/01/08 06:27:20;;;;;;;1.80;1.70;;;2.90;99.90;;;;;;5075193;28;20441;-62
2022/01/08 06:29:47;;;;;;;1.60;1.50;;;2.80;99.90;;;;;;5075628;28;20448;-61
2022/01/08 06:32:15;;;;;;;1.60;1.50;;;2.70;99.90;;;;;;5075377;28;20475;-61
2022/01/08 06:34:42;;;;;;;1.83;1.73;;;2.60;99.90;;;;;;5075421;28;20452;-61
2022/01/08 06:37:11;;;;;;;1.43;1.33;;;2.50;99.90;;;;;;5075490;28;20488;-61
2022/01/08 06:39:38;;;;;;;2.17;1.60;;;2.60;99.90;;;;;;5074961;28;20961;-62
2022/01/08 06:42:05;;;;;;;1.60;1.50;;;2.60;99.90;;;;;;5075215;28;20465;-61
2022/01/08 06:44:32;;;;;;;2.23;1.60;;;2.70;99.90;;;;;;5075090;28;20428;-61
2022/01/08 06:46:59;;;;;;;1.77;1.67;;;2.60;99.90;;;;;;5075136;28;20471;-61
2022/01/08 06:49:27;;;;;;;1.90;1.80;;;2.60;99.90;;;;;;5075140;28;20455;-61
2022/01/08 06:51:54;;;;;;;2.07;1.93;;;2.60;99.90;;;;;;5074837;28;20478;-61
2022/01/08 06:54:22;;;;;;;1.60;1.50;;;2.70;99.90;;;;;;5074766;28;20432;-62
2022/01/08 06:56:49;;;;;;;3.70;3.20;;;2.80;99.90;;;;;;5074556;28;20888;-61
2022/01/08 06:59:17;;;;;;;1.80;1.70;;;2.80;99.90;;;;;;5075039;28;20535;-61
2022/01/08 07:01:44;;;;;;;2.00;1.90;;;2.70;99.90;;;;;;5074544;28;20515;-61
2022/01/08 07:04:11;;;;;;;2.47;1.70;;;2.60;99.90;;;;;;5074885;28;20521;-62
2022/01/08 07:06:38;;;;;;;2.13;1.83;;;2.60;99.90;;;;;;5073926;28;20484;-62
2022/01/08 07:09:06;;;;;;;2.00;1.90;;;2.60;99.90;;;;;;5074517;28;20797;-62
2022/01/08 07:11:34;;;;;;;1.60;1.50;;;2.70;99.90;;;;;;5074344;28;20472;-62
2022/01/08 07:14:02;;;;;;;2.83;2.53;;;2.80;99.90;;;;;;5074343;28;20539;-61
2022/01/08 07:16:30;;;;;;;1.90;1.80;;;2.70;99.90;;;;;;5074216;28;20542;-61
2022/01/08 07:18:57;;;;;;;2.13;2.03;;;2.60;99.90;;;;;;5074170;28;20554;-61
2022/01/08 07:21:24;;;;;;;2.43;2.23;;;2.70;99.90;;;;;;5074129;28;20460;-62
2022/01/08 07:23:53;;;;;;;2.20;2.00;;;2.70;99.90;;;;;;5074488;28;20531;-62
2022/01/08 07:26:20;;;;;;;1.90;1.80;;;2.70;99.90;;;;;;5074067;28;20497;-62
2022/01/08 07:28:49;;;;;;;2.57;2.37;;;2.70;99.90;;;;;;5074372;28;20840;-62
2022/01/08 07:31:16;;;;;;;2.37;2.17;;;2.70;99.90;;;;;;5074050;28;20471;-62
2022/01/08 07:33:43;;;;;;;2.27;2.13;;;2.70;99.90;;;;;;5074238;28;20448;-62
2022/01/08 07:36:10;;;;;;;2.67;2.43;;;2.70;99.90;;;;;;5073926;28;20505;-62
2022/01/08 07:38:37;;;;;;;2.60;2.40;;;2.70;99.90;;;;;;5074033;28;20480;-62
2022/01/08 07:41:05;;;;;;;2.80;2.60;;;2.80;99.90;;;;;;5073713;28;20474;-62
2022/01/08 07:43:32;;;;;;;2.80;2.60;;;2.70;99.90;;;;;;5073764;28;20526;-62
2022/01/08 07:46:00;;;;;;;2.63;2.43;;;2.60;99.90;;;;;;5074087;28;20483;-62
2022/01/08 07:48:27;;;;;;;2.57;2.37;;;2.70;99.90;;;;;;5073666;28;20935;-61
2022/01/08 07:50:55;;;;;;;3.00;2.80;;;2.60;99.90;;;;;;5073743;28;20473;-62
2022/01/08 07:53:22;;;;;;;3.23;2.67;;;2.60;99.90;;;;;;5073668;28;20448;-62
2022/01/08 07:55:49;;;;;;;2.93;2.70;;;2.60;99.90;;;;;;5073875;28;20885;-62
2022/01/08 07:58:20;;;;;;;3.33;2.63;;;2.70;99.90;;;;;;5073313;28;20566;-62
2022/01/08 08:00:48;;;;;;;2.73;2.53;;;2.70;99.90;;;;;;5073692;28;20541;-62
2022/01/08 08:03:16;;;;;;;3.43;2.60;;;2.70;99.90;;;;;;5073489;28;20803;-62
2022/01/08 08:05:45;;;;;;;2.27;2.07;;;2.70;99.90;;;;;;5073552;28;20489;-62
2022/01/08 08:08:16;;;;;;;2.87;2.20;;;2.50;99.90;;;;;;5073570;28;20456;-62
2022/01/08 08:10:43;;;;;;;3.40;3.10;;;2.70;99.90;;;;;;5073668;28;20464;-62
2022/01/08 08:13:10;;;;;;;3.50;2.40;;;2.60;99.90;;;;;;5073564;28;20547;-62
2022/01/08 08:15:37;;;;;;;2.50;2.30;;;2.60;99.90;;;;;;5073096;28;20876;-62
2022/01/08 08:18:05;;;;;;;3.30;2.83;;;2.60;99.90;;;;;;5072311;28;20480;-61
2022/01/08 08:20:34;;;;;;;2.20;2.10;;;2.60;99.90;;;;;;5073428;28;20457;-62
2022/01/08 08:23:01;;;;;;;2.57;2.40;;;2.60;99.90;;;;;;5073146;28;20454;-62
2022/01/08 08:25:28;;;;;;;3.30;2.90;;;2.80;99.90;;;;;;5073259;28;20439;-62
2022/01/08 08:27:55;;;;;;;2.70;2.50;;;2.80;99.90;;;;;;5073186;28;20540;-62
2022/01/08 08:30:22;;;;;;;2.83;2.50;;;2.90;99.90;;;;;;5072975;28;20468;-62
2022/01/08 08:32:50;;;;;;;2.77;2.57;;;2.80;99.90;;;;;;5073367;28;20447;-62
2022/01/08 08:35:18;;;;;;;4.33;2.67;;;2.90;99.90;;;;;;5073123;28;20441;-62
2022/01/08 08:37:47;;;;;;;2.30;2.10;;;3.00;99.90;;;;;;5073284;28;20580;-61
2022/01/08 08:40:15;;;;;;;2.77;2.67;;;3.10;99.90;;;;;;5072911;28;20470;-62
2022/01/08 08:42:42;;;;;;;2.27;2.07;;;3.00;99.90;;;;;;5073069;28;20456;-62
2022/01/08 08:45:10;;;;;;;2.87;2.57;;;3.00;99.90;;;;;;5072914;28;20531;-62
2022/01/08 08:47:39;;;;;;;2.17;2.07;;;3.10;99.90;;;;;;5073163;28;20476;-62
2022/01/08 08:50:08;;;;;;;4.80;2.43;;;3.00;99.90;;;;;;5072906;28;20454;-61
2022/01/08 08:52:35;;;;;;;2.30;2.20;;;3.10;99.90;;;;;;5072715;28;20445;-62
2022/01/08 08:55:05;;;;;;;2.40;2.30;;;3.20;99.90;;;;;;5072827;28;20463;-62
2022/01/08 08:57:32;;;;;;;2.40;2.13;;;3.20;99.90;;;;;;5073136;28;20494;-62
2022/01/08 09:00:00;;;;;;;1.90;1.80;;;3.20;99.90;;;;;;5072707;28;20453;-62
2022/01/08 09:02:27;;;;;;;2.97;2.20;;;3.10;99.90;;;;;;5072713;28;20444;-62
2022/01/08 09:04:54;;;;;;;2.93;2.23;;;3.10;99.90;;;;;;5072708;28;20464;-62
2022/01/08 09:07:21;;;;;;;7.50;2.17;;;3.20;99.90;;;;;;5073091;28;20484;-62
2022/01/08 09:09:48;;;;;;;6.93;2.90;;;3.30;99.90;;;;;;5072630;28;20458;-62
2022/01/08 09:12:17;;;;;;;2.50;2.30;;;3.40;99.90;;;;;;5072852;28;20464;-62
2022/01/08 09:14:44;;;;;;;3.73;1.80;;;3.30;99.90;;;;;;5072545;28;20472;-62
2022/01/08 09:17:13;;;;;;;2.70;2.50;;;3.20;99.90;;;;;;5072520;28;20903;-62
2022/01/08 09:19:40;;;;;;;2.97;2.50;;;3.20;99.90;;;;;;5072630;28;20476;-62
2022/01/08 09:22:08;;;;;;;2.73;2.53;;;3.30;99.90;;;;;;5072903;28;20464;-62
2022/01/08 09:24:36;;;;;;;2.63;2.20;;;3.40;99.90;;;;;;5072608;28;20445;-62
2022/01/08 09:27:08;;;;;;;6.77;2.47;;;3.40;99.90;;;;;;5072509;28;20498;-62
2022/01/08 09:29:36;;;;;;;2.73;2.50;;;3.30;99.90;;;;;;5074439;28;20443;-62
2022/01/08 09:32:06;;;;;;;3.00;2.63;;;3.30;99.90;;;;;;5076178;28;20468;-61
2022/01/08 09:34:33;;;;;;;2.50;2.20;;;3.50;99.90;;;;;;5076147;28;20523;-62
2022/01/08 09:37:01;;;;;;;2.80;2.37;;;3.50;99.90;;;;;;5076299;28;20559;-62
2022/01/08 09:39:28;;;;;;;5.13;2.50;;;3.50;99.90;;;;;;5076471;28;20529;-62
2022/01/08 09:41:55;;;;;;;3.13;2.47;;;3.50;99.90;;;;;;5076007;28;20483;-62
2022/01/08 09:44:22;;;;;;;2.33;2.20;;;3.50;99.90;;;;;;5075987;28;20543;-62
2022/01/08 09:46:51;;;;;;;3.00;2.60;;;3.60;99.90;;;;;;5076036;28;20985;-62
2022/01/08 09:49:18;;;;;;;2.50;2.30;;;3.50;99.90;;;;;;5076182;28;20442;-62
2022/01/08 09:51:45;;;;;;;3.27;2.93;;;3.70;99.90;;;;;;5075712;28;20468;-62
2022/01/08 09:54:12;;;;;;;2.90;2.70;;;3.70;99.90;;;;;;5076289;28;20444;-62
2022/01/08 09:56:40;;;;;;;3.63;3.30;;;3.80;99.90;;;;;;5076110;28;20448;-62
2022/01/08 09:59:07;;;;;;;3.40;3.10;;;3.70;99.90;;;;;;5075710;28;20570;-62
2022/01/08 10:01:36;;;;;;;3.73;3.00;;;3.60;99.90;;;;;;5075954;28;20475;-62
2022/01/08 10:04:06;;;;;;;3.30;3.00;;;3.70;99.90;;;;;;5075553;28;20445;-62
2022/01/08 10:06:35;;;;;;;3.10;2.90;;;3.80;99.90;;;;;;5075847;28;20463;-62
2022/01/08 10:09:04;;;;;;;3.83;3.00;;;3.90;99.90;;;;;;5075893;28;20448;-62
2022/01/08 10:11:33;;;;;;;2.50;2.40;;;4.10;99.90;;;;;;5075525;28;20472;-63
2022/01/08 10:14:04;;;;;;;3.00;2.80;;;4.30;99.90;;;;;;5075466;28;20991;-62
2022/01/08 10:19:21;;;;;;;3.50;2.67;;;4.10;99.90;;;;;;5075440;28;20542;-62
2022/01/08 10:21:49;;;;;;;3.37;2.57;;;4.20;99.90;;;;;;5075715;28;20464;-62
2022/01/08 10:24:21;;;;;;;2.53;2.33;;;4.30;99.90;;;;;;5075268;28;20444;-62
2022/01/08 10:26:49;;;;;;;2.83;2.63;;;4.20;99.90;;;;;;5075225;28;20900;-62
2022/01/08 10:29:18;;;;;;;5.33;2.47;;;4.10;99.90;;;;;;5075230;28;20444;-61
2022/01/08 10:31:47;;;;;;;2.67;2.17;;;4.00;99.90;;;;;;5075190;28;20480;-62
2022/01/08 10:34:18;;;;;;;3.73;3.00;;;3.90;99.90;;;;;;5075022;28;20424;-61
2022/01/08 10:36:49;;;;;;;5.33;2.70;;;3.90;99.90;;;;;;5075863;28;20855;-62
2022/01/08 10:39:20;;;;;;;2.97;2.67;;;4.00;99.90;;;;;;5075256;28;20478;-62
2022/01/08 10:41:48;;;;;;;2.83;2.60;;;4.10;99.90;;;;;;5074308;28;20475;-62
2022/01/08 10:44:17;;;;;;;3.90;2.60;;;4.10;99.90;;;;;;5075205;28;20547;-62
2022/01/08 10:46:54;;;;;;;9.23;3.53;;;3.90;99.90;;;;;;5075152;28;20457;-62
2022/01/08 10:49:29;;;;;;;2.77;2.57;;;3.80;99.90;;;;;;5074929;28;20911;-62
2022/01/08 10:52:00;;;;;;;5.40;2.10;;;3.70;99.90;;;;;;5074853;28;20472;-62
2022/01/08 10:54:28;;;;;;;2.43;2.23;;;3.70;99.90;;;;;;5074959;28;20429;-62
2022/01/08 10:57:08;;;;;;;2.40;2.17;;;3.50;99.90;;;;;;5074920;28;20455;-62
2022/01/08 10:59:36;;;;;;;3.53;2.97;;;3.70;99.90;;;;;;5074223;28;20567;-62
2022/01/08 11:02:05;;;;;;;3.17;2.90;;;3.70;99.90;;;;;;5074954;28;20464;-62
2022/01/08 11:04:45;;;;;;;4.60;2.33;;;3.70;99.90;;;;;;5074822;28;20451;-62
2022/01/08 11:07:16;;;;;;;2.90;2.67;;;3.80;99.90;;;;;;5074817;28;20461;-62
2022/01/08 11:09:45;;;;;;;4.73;2.30;;;3.90;99.90;;;;;;5074722;28;20425;-62
2022/01/08 11:12:16;;;;;;;6.23;2.77;;;4.00;99.90;;;;;;5074742;28;20468;-62
2022/01/08 11:17:37;;;;;;;6.33;3.17;;;4.40;99.90;;;;;;5074395;28;20490;-62
2022/01/08 11:20:07;;;;;;;2.70;2.33;;;5.50;99.90;;;;;;5073972;28;20546;-62
2022/01/08 11:22:38;;;;;;;4.27;2.10;;;6.80;99.90;;;;;;5074472;28;20444;-62
2022/01/08 11:25:06;;;;;;;3.10;2.40;;;;;;;;;;5074556;28;20433;-63
2022/01/08 11:27:41;;;;;;;2.10;1.90;;;8.40;99.00;;;;;;5074036;28;20448;-62
2022/01/08 11:30:12;;;;;;;2.83;2.63;;;8.20;99.60;;;;;;5074046;28;20428;-62
2022/01/08 11:32:40;;;;;;;4.60;2.40;;;7.60;98.80;;;;;;5074253;28;20540;-62
2022/01/08 11:35:11;;;;;;;2.47;2.27;;;6.20;99.90;;;;;;5074206;28;20443;-62
2022/01/08 11:37:45;;;;;;;2.60;1.90;;;5.90;99.90;;;;;;5074223;28;20484;-62
2022/01/08 11:40:14;;;;;;;4.13;2.43;;;5.40;99.90;;;;;;5073569;28;20471;-62
2022/01/08 11:42:42;;;;;;;3.17;2.23;;;5.30;99.90;;;;;;5073782;28;20543;-62
2022/01/08 11:45:13;;;;;;;2.30;2.10;;;5.30;99.90;;;;;;5073987;28;20448;-62
2022/01/08 11:47:45;;;;;;;2.83;2.47;;;5.20;99.90;;;;;;5074017;28;20786;-62
2022/01/08 11:50:14;;;;;;;6.50;2.50;;;5.50;99.90;;;;;;5073870;28;20447;-62
2022/01/08 11:52:43;;;;;;;3.57;2.10;;;6.20;99.90;;;;;;5073600;28;20444;-62
2022/01/08 11:55:11;;;;;;;1.80;1.70;;;6.60;99.90;;;;;;5073581;28;20444;-62
2022/01/08 11:57:38;;;;;;;2.27;1.70;;;6.40;99.90;;;;;;5073712;28;20556;-62
2022/01/08 12:00:07;;;;;;;2.30;2.10;;;5.80;99.90;;;;;;5073606;28;20480;-62
2022/01/08 12:02:39;;;;;;;2.40;2.10;;;5.60;99.90;;;;;;5073709;28;20806;-62
2022/01/08 12:05:08;;;;;;;3.53;3.23;;;5.70;99.90;;;;;;5073320;28;20923;-62
2022/01/08 12:07:39;;;;;;;2.60;2.00;;;5.40;99.90;;;;;;5073664;28;20909;-62
2022/01/08 12:10:15;;;;;;;2.80;2.57;;;5.30;99.90;;;;;;5073113;28;20490;-62
2022/01/08 12:12:51;;;;;;;3.27;2.40;;;5.30;99.90;;;;;;5073318;28;20442;-62
2022/01/08 12:15:50;;;;;;;6.47;2.10;;;5.40;99.90;;;;;;5073299;28;20566;-62
2022/01/08 12:18:20;;;;;;;3.80;2.10;;;5.50;99.90;;;;;;5073583;28;20448;-62
2022/01/08 12:20:49;;;;;;;2.37;2.17;;;5.30;99.90;;;;;;5073190;28;20546;-62
2022/01/08 12:23:31;;;;;;;2.47;2.27;;;5.30;99.90;;;;;;5073280;28;20455;-62
2022/01/08 12:26:02;;;;;;;2.93;2.73;;;5.40;99.90;;;;;;5073160;28;20440;-62
2022/01/08 12:28:45;;;;;;;2.33;2.07;;;5.60;99.90;;;;;;5073321;28;20561;-62
2022/01/08 12:31:41;;;;;;;2.87;2.20;;;5.50;99.90;;;;;;5073022;28;20468;-62
2022/01/08 12:34:48;;;;;;;2.27;2.07;;;5.60;99.90;;;;;;5073034;28;20436;-62
2022/01/08 12:37:16;;;;;;;3.90;2.27;;;5.70;99.90;;;;;;5073361;28;20549;-62
2022/01/08 12:39:53;;;;;;;2.20;2.00;;;5.30;99.90;;;;;;5072776;28;20480;-62
2022/01/08 12:42:36;;;;;;;2.90;2.27;;;5.10;99.90;;;;;;5073260;28;20874;-62
2022/01/08 12:45:06;;;;;;;2.53;2.23;;;;;;;;;;5073257;28;20429;-62
2022/01/08 12:47:55;;;;;;;5.13;2.40;;;5.00;99.90;;;;;;5072902;28;20547;-62
2022/01/08 12:50:26;;;;;;;6.00;2.83;;;5.00;99.90;;;;;;5072948;28;20962;-62
2022/01/08 12:53:17;;;;;;;3.90;2.90;;;4.90;99.90;;;;;;5072827;28;20454;-62
2022/01/08 12:56:08;;;;;;;2.93;2.73;;;5.20;99.90;;;;;;5072936;28;20831;-62
2022/01/08 12:58:43;;;;;;;3.00;1.90;;;5.70;99.90;;;;;;5073176;28;20491;-62
2022/01/08 13:01:12;;;;;;;3.00;2.47;;;5.90;99.90;;;;;;5073194;28;20470;-62
2022/01/08 13:03:40;;;;;;;3.03;2.60;;;5.60;99.90;;;;;;5073451;28;20524;-62
2022/01/08 13:06:28;;;;;;;2.53;2.33;;;5.70;99.90;;;;;;5076578;28;20452;-62
2022/01/08 13:08:56;;;;;;;2.67;2.00;;;5.50;99.90;;;;;;5076630;28;20431;-62
2022/01/08 13:11:25;;;;;;;2.30;2.10;;;5.80;99.90;;;;;;5076597;28;20471;-62
2022/01/08 13:13:57;;;;;;;7.13;3.20;;;6.00;99.90;;;;;;5076434;28;20996;-62
2022/01/08 13:16:27;;;;;;;2.77;2.20;;;5.80;99.90;;;;;;5076385;28;20488;-62
2022/01/08 13:18:57;;;;;;;2.70;2.50;;;5.80;99.90;;;;;;5076376;28;20432;-62
2022/01/08 13:21:29;;;;;;;2.67;1.80;;;5.50;99.90;;;;;;5076764;28;20464;-63
2022/01/08 13:23:57;;;;;;;5.30;4.80;;;5.40;99.90;;;;;;5076827;28;20425;-62
2022/01/08 13:26:35;;;;;;;2.67;2.27;;;5.60;99.90;;;;;;5076301;28;20543;-63
2022/01/08 13:29:18;;;;;;;2.63;2.43;;;5.60;99.90;;;;;;5076583;28;20460;-62